This is the latest recevied weather packets stored in our database for station/object W5CRT. If no packets are shown the sender has not sent any weather packets the latest 1 day(s).
| Time | Temp. | Humidity | Pressure | Rain* | Wind** | Luminosity | Snow |
|---|---|---|---|---|---|---|---|
| 1778036813 | 20.56° C | 74% | 1006.1 hPa | 0 mm | 2.68 m/s, 355° | 0 W/m² | - |
| 1778036509 | 21.11° C | 74% | 1006.1 hPa | 0 mm | 3.13 m/s, 12° | 0 W/m² | - |
| 1778036206 | 21.11° C | 74% | 1005.8 hPa | 0 mm | 2.24 m/s, 3° | 0 W/m² | - |
| 1778035902 | 21.11° C | 73% | 1005.9 hPa | 0 mm | 4.02 m/s, 343° | 0 W/m² | - |
| 1778035600 | 21.11° C | 73% | 1005.4 hPa | 0 mm | 2.68 m/s, 339° | 0 W/m² | - |
| 1778035296 | 21.67° C | 73% | 1005.5 hPa | 0 mm | 3.58 m/s, 4° | 0 W/m² | - |
| 1778034992 | 21.67° C | 73% | 1005.1 hPa | 0 mm | 2.68 m/s, 3° | 0 W/m² | - |
| 1778034689 | 21.67° C | 73% | 1005.1 hPa | 0 mm | 2.24 m/s, 1° | 0 W/m² | - |
| 1778034387 | 21.67° C | 72% | 1005 hPa | 0 mm | 4.02 m/s, 357° | 0 W/m² | - |
| 1778034084 | 22.22° C | 72% | 1005 hPa | 0 mm | 3.13 m/s, 6° | 0 W/m² | - |
| 1778033782 | 22.22° C | 72% | 1004.4 hPa | 0 mm | 3.13 m/s, 8° | 0 W/m² | - |
| 1778033479 | 22.78° C | 72% | 1004.2 hPa | 0 mm | 1.79 m/s, 14° | 0 W/m² | - |
| 1778033176 | 23.33° C | 72% | 1004.7 hPa | 0 mm | 3.13 m/s, 354° | 0 W/m² | - |
| 1778032874 | 23.33° C | 71% | 1004.6 hPa | 0 mm | 0.89 m/s, 333° | 0 W/m² | - |
| 1778032571 | 23.33° C | 71% | 1004.7 hPa | 0 mm | 1.34 m/s, 344° | 0 W/m² | - |
| 1778032268 | 23.33° C | 71% | 1004.3 hPa | 0 mm | 1.34 m/s, 350° | 0 W/m² | - |
| 1778031966 | 23.33° C | 71% | 1004.4 hPa | 0 mm | 2.24 m/s, 16° | 0 W/m² | - |
| 1778031661 | 23.89° C | 70% | 1004 hPa | 0 mm | 1.34 m/s, 358° | 0 W/m² | - |
| 1778031359 | 23.89° C | 69% | 1004.1 hPa | 0 mm | 3.13 m/s, 12° | 0 W/m² | - |
| 1778031055 | 23.89° C | 69% | 1004.3 hPa | 0 mm | 2.24 m/s, 350° | 0 W/m² | - |
| 1778030752 | 23.89° C | 69% | 1004.5 hPa | 0 mm | 2.24 m/s, 3° | 0 W/m² | - |
| 1778030448 | 23.89° C | 69% | 1004 hPa | 0 mm | 1.34 m/s, 329° | 0 W/m² | - |
| 1778030147 | 23.89° C | 69% | 1003.8 hPa | 0 mm | 1.79 m/s, 355° | 0 W/m² | - |
| 1778029843 | 24.44° C | 68% | 1003.5 hPa | 0 mm | 0.89 m/s, 343° | 1 W/m² | - |
| 1778029542 | 24.44° C | 67% | 1003.6 hPa | 0 mm | 1.34 m/s, 20° | 1 W/m² | - |
* Rain latest hour (hover to see other rain measurements)
** Current wind speed in m/s (hover to see current wind gust speed)